createdAt,value
2018-11-01T00:00:16.954Z,67.70
2018-11-01T00:01:26.224Z,67.70
2018-11-01T00:02:30.337Z,67.60
2018-11-01T00:03:34.369Z,67.60
2018-11-01T00:04:38.424Z,67.70
2018-11-01T00:05:42.540Z,67.70
2018-11-01T00:06:46.616Z,67.70
2018-11-01T00:07:50.812Z,67.70
2018-11-01T00:08:56.014Z,67.70
2018-11-01T00:10:00.102Z,67.80
2018-11-01T00:11:04.613Z,67.80
2018-11-01T00:12:08.778Z,67.80
2018-11-01T00:13:12.870Z,67.80
2018-11-01T00:14:17.017Z,67.80
2018-11-01T00:15:21.084Z,67.80
2018-11-01T00:16:25.164Z,67.80
2018-11-01T00:17:29.257Z,67.80
2018-11-01T00:18:33.384Z,67.70
2018-11-01T00:19:37.533Z,67.70
2018-11-01T00:20:41.714Z,67.70
2018-11-01T00:21:45.753Z,67.60
2018-11-01T00:22:49.793Z,67.50
2018-11-01T00:23:53.788Z,67.50
2018-11-01T00:24:57.986Z,67.40
2018-11-01T00:26:02.095Z,67.30
2018-11-01T00:27:06.206Z,67.30
2018-11-01T00:28:10.322Z,67.10
2018-11-01T00:29:14.464Z,67.10
2018-11-01T00:30:18.642Z,67.00
2018-11-01T00:31:22.760Z,66.90
2018-11-01T00:32:26.820Z,66.90
2018-11-01T00:33:30.963Z,67.00
2018-11-01T00:34:35.066Z,66.90
2018-11-01T00:35:39.166Z,66.90
2018-11-01T00:36:43.316Z,66.70
2018-11-01T00:37:47.420Z,67.00
2018-11-01T00:38:51.497Z,67.00
2018-11-01T00:39:55.614Z,66.90
2018-11-01T00:40:59.685Z,66.80
2018-11-01T00:42:03.761Z,66.80
2018-11-01T00:43:07.823Z,66.80
2018-11-01T00:44:12.058Z,66.80
2018-11-01T00:45:16.155Z,66.80
2018-11-01T00:46:20.336Z,66.70
2018-11-01T00:47:24.480Z,66.70
2018-11-01T00:48:28.669Z,66.70
2018-11-01T00:49:32.769Z,66.60
2018-11-01T00:50:36.933Z,67.30
2018-11-01T00:51:40.990Z,66.50
2018-11-01T00:52:45.186Z,66.60
2018-11-01T00:53:49.284Z,66.50
2018-11-01T00:54:53.490Z,66.50
2018-11-01T00:55:57.640Z,66.40
2018-11-01T00:57:01.705Z,66.40
2018-11-01T00:58:06.306Z,66.30
2018-11-01T00:59:10.340Z,66.30
2018-11-01T01:00:15.478Z,66.30
2018-11-01T01:01:19.518Z,66.30
2018-11-01T01:02:23.568Z,66.20
2018-11-01T01:03:27.710Z,66.10
2018-11-01T01:04:31.773Z,66.00
2018-11-01T01:05:35.879Z,66.10
2018-11-01T01:06:39.907Z,66.00
2018-11-01T01:07:44.049Z,66.00
2018-11-01T01:08:48.128Z,66.00
2018-11-01T01:09:52.236Z,65.80
2018-11-01T01:10:56.345Z,65.90
2018-11-01T01:12:00.438Z,66.00
2018-11-01T01:13:04.816Z,66.00
2018-11-01T01:14:09.544Z,65.90
2018-11-01T01:15:13.846Z,65.80
2018-11-01T01:16:17.934Z,65.80
2018-11-01T01:17:22.046Z,65.80
2018-11-01T01:18:26.178Z,65.80
2018-11-01T01:19:30.307Z,65.80
2018-11-01T01:20:34.438Z,65.80
2018-11-01T01:21:38.502Z,65.80
2018-11-01T01:22:43.784Z,65.80
2018-11-01T01:23:47.876Z,65.70
2018-11-01T01:24:52.140Z,65.60
2018-11-01T01:25:56.248Z,65.60
2018-11-01T01:27:00.298Z,65.60
2018-11-01T01:28:04.440Z,65.60
2018-11-01T01:29:08.560Z,65.60
2018-11-01T01:30:15.915Z,65.60
2018-11-01T01:31:19.985Z,65.60
2018-11-01T01:32:24.079Z,65.60
2018-11-01T01:33:28.166Z,65.60
2018-11-01T01:34:32.404Z,65.50
2018-11-01T01:35:36.505Z,65.40
2018-11-01T01:36:40.907Z,65.40
2018-11-01T01:37:45.538Z,65.50
2018-11-01T01:38:49.746Z,65.50
2018-11-01T01:39:53.908Z,65.50
2018-11-01T01:40:58.056Z,65.50
2018-11-01T01:42:02.283Z,65.50
2018-11-01T01:43:06.464Z,65.40
2018-11-01T01:44:10.672Z,65.40
2018-11-01T01:45:15.002Z,65.40
2018-11-01T01:46:19.125Z,65.40
2018-11-01T01:47:23.323Z,65.30
2018-11-01T01:48:27.432Z,65.40
2018-11-01T01:49:31.641Z,65.50
2018-11-01T01:50:35.831Z,66.20
2018-11-01T01:51:39.968Z,65.50
2018-11-01T01:52:44.772Z,65.50
2018-11-01T01:53:48.907Z,65.60
2018-11-01T01:54:52.987Z,65.60
2018-11-01T01:55:57.260Z,65.60
2018-11-01T01:57:01.418Z,65.70
2018-11-01T01:58:05.771Z,65.80
2018-11-01T01:59:09.820Z,65.70
2018-11-01T02:00:16.514Z,65.70
2018-11-01T02:01:20.717Z,65.70
2018-11-01T02:02:24.739Z,65.70
2018-11-01T02:03:28.862Z,65.70
2018-11-01T02:04:32.931Z,65.60
2018-11-01T02:05:37.126Z,65.60
2018-11-01T02:06:41.269Z,65.60
2018-11-01T02:07:45.337Z,65.60
2018-11-01T02:08:49.403Z,65.50
2018-11-01T02:09:53.508Z,65.40
2018-11-01T02:10:57.614Z,65.40
2018-11-01T02:12:01.700Z,65.40
2018-11-01T02:13:06.206Z,65.40
2018-11-01T02:14:10.316Z,65.40
2018-11-01T02:15:16.453Z,65.40
2018-11-01T02:16:20.569Z,65.40
2018-11-01T02:17:24.598Z,65.40
2018-11-01T02:18:28.642Z,65.40
2018-11-01T02:19:32.746Z,65.60
2018-11-01T02:20:38.825Z,65.60
2018-11-01T02:21:48.764Z,65.50
2018-11-01T02:22:58.916Z,65.60
2018-11-01T02:24:09.067Z,65.40
2018-11-01T02:25:19.067Z,65.40
2018-11-01T02:26:23.301Z,65.50
2018-11-01T02:27:31.606Z,65.40
2018-11-01T02:28:35.658Z,65.40
2018-11-01T02:29:39.790Z,65.40
2018-11-01T02:30:43.886Z,65.50
2018-11-01T02:31:47.935Z,65.60
2018-11-01T02:32:52.018Z,65.50
2018-11-01T02:33:56.121Z,65.60
2018-11-01T02:35:00.238Z,65.60
2018-11-01T02:36:04.351Z,65.70
2018-11-01T02:37:08.464Z,65.70
2018-11-01T02:38:12.785Z,65.60
2018-11-01T02:39:16.719Z,65.50
2018-11-01T02:40:20.794Z,65.60
2018-11-01T02:41:24.808Z,65.50
2018-11-01T02:42:28.954Z,65.40
2018-11-01T02:43:33.010Z,65.30
2018-11-01T02:44:37.126Z,65.30
2018-11-01T02:45:41.326Z,65.30
2018-11-01T02:46:45.763Z,65.50
2018-11-01T02:47:49.961Z,65.30
2018-11-01T02:48:54.009Z,65.40
2018-11-01T02:49:58.069Z,65.40
2018-11-01T02:51:02.102Z,65.40
2018-11-01T02:52:06.490Z,65.40
2018-11-01T02:53:10.575Z,65.30
2018-11-01T02:54:14.634Z,65.30
2018-11-01T02:55:18.674Z,65.20
2018-11-01T02:56:22.778Z,65.10
2018-11-01T02:57:26.828Z,65.10
2018-11-01T02:58:30.881Z,65.10
2018-11-01T02:59:34.968Z,65.10
2018-11-01T03:00:39.031Z,65.00
2018-11-01T03:01:43.160Z,65.00
2018-11-01T03:02:47.239Z,64.80
2018-11-01T03:03:51.375Z,64.80
2018-11-01T03:04:55.402Z,64.90
2018-11-01T03:05:59.475Z,64.90
2018-11-01T03:07:03.565Z,64.90
2018-11-01T03:08:07.639Z,64.90
2018-11-01T03:09:12.133Z,65.00
2018-11-01T03:10:16.262Z,65.50
2018-11-01T03:11:20.326Z,65.20
2018-11-01T03:12:24.416Z,65.30
2018-11-01T03:13:28.534Z,65.40
2018-11-01T03:14:32.642Z,66.00
2018-11-01T03:15:36.714Z,65.30
2018-11-01T03:16:40.838Z,65.30
2018-11-01T03:17:44.925Z,65.20
2018-11-01T03:18:49.117Z,65.20
2018-11-01T03:19:53.204Z,65.10
2018-11-01T03:20:57.302Z,65.10
2018-11-01T03:22:02.594Z,65.10
2018-11-01T03:23:06.725Z,65.00
2018-11-01T03:24:10.815Z,65.00
2018-11-01T03:25:15.229Z,65.00
2018-11-01T03:26:19.300Z,65.10
2018-11-01T03:27:23.446Z,65.10
2018-11-01T03:28:27.893Z,65.20
2018-11-01T03:29:31.998Z,65.20
2018-11-01T03:30:36.079Z,65.20
2018-11-01T03:31:40.226Z,65.30
2018-11-01T03:32:44.280Z,66.00
2018-11-01T03:33:48.441Z,65.30
2018-11-01T03:34:52.564Z,65.20
2018-11-01T03:35:56.714Z,65.20
2018-11-01T03:37:00.744Z,65.20
2018-11-01T03:38:04.906Z,65.00
2018-11-01T03:39:10.295Z,65.20
2018-11-01T03:40:14.339Z,65.20
2018-11-01T03:41:18.482Z,65.20
2018-11-01T03:42:22.593Z,65.30
2018-11-01T03:43:26.620Z,65.30
2018-11-01T03:44:30.771Z,65.30
2018-11-01T03:45:41.551Z,65.40
2018-11-01T03:46:45.614Z,66.10
2018-11-01T03:47:49.728Z,65.30
2018-11-01T03:48:53.763Z,65.30
2018-11-01T03:49:57.888Z,65.30
2018-11-01T03:51:01.994Z,65.30
2018-11-01T03:52:06.331Z,65.30
2018-11-01T03:53:10.216Z,65.30
2018-11-01T03:54:14.465Z,65.30
2018-11-01T03:55:18.536Z,65.30
2018-11-01T03:56:22.671Z,65.30
2018-11-01T03:57:26.742Z,65.30
2018-11-01T03:58:30.811Z,65.30
2018-11-01T03:59:35.011Z,65.30
2018-11-01T04:00:39.054Z,65.40
2018-11-01T04:01:43.184Z,65.30
2018-11-01T04:02:47.897Z,65.30
2018-11-01T04:03:52.041Z,65.30
2018-11-01T04:04:56.056Z,65.30
2018-11-01T04:06:00.165Z,65.30
2018-11-01T04:07:04.325Z,65.30
2018-11-01T04:08:08.440Z,65.30
2018-11-01T04:09:13.596Z,65.30
2018-11-01T04:10:17.657Z,65.30
2018-11-01T04:11:21.742Z,65.30
2018-11-01T04:12:25.852Z,65.30
2018-11-01T04:13:29.936Z,65.30
2018-11-01T04:14:34.385Z,65.30
2018-11-01T04:15:38.560Z,65.30
2018-11-01T04:16:42.654Z,65.20
2018-11-01T04:17:46.684Z,65.30
2018-11-01T04:18:50.720Z,65.30
2018-11-01T04:19:54.866Z,65.30
2018-11-01T04:21:05.720Z,65.30
2018-11-01T04:22:09.839Z,65.30
2018-11-01T04:23:14.068Z,65.30
2018-11-01T04:24:18.189Z,65.30
2018-11-01T04:25:22.310Z,65.40
2018-11-01T04:26:26.483Z,65.40
2018-11-01T04:27:30.560Z,65.40
2018-11-01T04:28:34.630Z,66.20
2018-11-01T04:29:38.847Z,65.40
2018-11-01T04:30:42.924Z,65.40
2018-11-01T04:31:47.057Z,65.40
2018-11-01T04:32:51.152Z,65.40
2018-11-01T04:33:55.204Z,65.40
2018-11-01T04:34:59.247Z,65.40
2018-11-01T04:36:03.383Z,65.40
2018-11-01T04:37:07.442Z,65.50
2018-11-01T04:38:11.466Z,65.50
2018-11-01T04:39:15.532Z,65.50
2018-11-01T04:40:19.620Z,65.60
2018-11-01T04:41:23.783Z,65.60
2018-11-01T04:42:27.861Z,65.60
2018-11-01T04:43:31.930Z,65.60
2018-11-01T04:44:35.985Z,65.60
2018-11-01T04:45:40.098Z,65.60
2018-11-01T04:46:44.128Z,65.60
2018-11-01T04:47:48.381Z,65.60
2018-11-01T04:48:52.306Z,65.60
2018-11-01T04:49:56.416Z,66.40
2018-11-01T04:51:00.477Z,65.60
2018-11-01T04:52:05.084Z,65.60
2018-11-01T04:53:09.693Z,65.70
2018-11-01T04:54:13.966Z,65.70
2018-11-01T04:55:18.170Z,65.80
2018-11-01T04:56:22.276Z,65.80
2018-11-01T04:57:26.339Z,65.80
2018-11-01T04:58:30.519Z,65.80
2018-11-01T04:59:34.543Z,65.80
2018-11-01T05:00:38.710Z,65.80
2018-11-01T05:01:42.814Z,65.80
2018-11-01T05:02:46.945Z,65.80
2018-11-01T05:03:53.228Z,65.40
2018-11-01T05:04:57.304Z,65.80
2018-11-01T05:06:01.392Z,65.90
2018-11-01T05:07:05.563Z,65.90
2018-11-01T05:08:09.688Z,66.00
2018-11-01T05:09:13.843Z,66.00
2018-11-01T05:10:17.903Z,66.00
2018-11-01T05:11:22.004Z,66.10
2018-11-01T05:12:26.042Z,66.10
2018-11-01T05:13:30.147Z,66.10
2018-11-01T05:14:34.228Z,66.10
2018-11-01T05:15:38.407Z,66.10
2018-11-01T05:16:42.482Z,66.10
2018-11-01T05:17:46.523Z,66.20
2018-11-01T05:18:50.623Z,66.20
2018-11-01T05:19:54.679Z,66.10
2018-11-01T05:20:58.800Z,66.10
2018-11-01T05:22:02.826Z,66.10
2018-11-01T05:23:06.911Z,66.10
2018-11-01T05:24:11.038Z,66.10
2018-11-01T05:25:15.051Z,66.60
2018-11-01T05:26:19.127Z,66.20
2018-11-01T05:27:23.136Z,66.10
2018-11-01T05:28:27.739Z,66.10
2018-11-01T05:29:31.867Z,66.20
2018-11-01T05:30:35.910Z,66.20
2018-11-01T05:31:39.977Z,66.20
2018-11-01T05:32:43.959Z,66.20
2018-11-01T05:33:48.074Z,66.10
2018-11-01T05:34:52.107Z,66.10
2018-11-01T05:35:56.184Z,66.20
2018-11-01T05:37:00.315Z,66.20
2018-11-01T05:38:04.481Z,66.30
2018-11-01T05:39:09.716Z,66.30
2018-11-01T05:40:13.783Z,66.30
2018-11-01T05:41:17.902Z,66.30
2018-11-01T05:42:22.060Z,66.30
2018-11-01T05:43:27.702Z,66.30
2018-11-01T05:44:31.909Z,67.10
2018-11-01T05:45:35.987Z,66.50
2018-11-01T05:46:40.120Z,66.50
2018-11-01T05:47:44.142Z,66.50
2018-11-01T05:48:48.252Z,66.60
2018-11-01T05:49:52.329Z,66.60
2018-11-01T05:50:56.420Z,66.70
2018-11-01T05:52:00.456Z,66.70
2018-11-01T05:53:04.818Z,66.70
2018-11-01T05:54:08.844Z,66.60
2018-11-01T05:55:12.986Z,66.70
2018-11-01T05:56:17.135Z,66.70
2018-11-01T05:57:21.130Z,66.70
2018-11-01T05:58:25.226Z,66.70
2018-11-01T05:59:29.343Z,66.80
2018-11-01T06:00:33.468Z,66.80
2018-11-01T06:01:42.123Z,66.80
2018-11-01T06:02:48.686Z,66.70
2018-11-01T06:03:52.920Z,66.70
2018-11-01T06:04:57.159Z,66.70
2018-11-01T06:06:01.403Z,66.70
2018-11-01T06:07:05.600Z,66.70
2018-11-01T06:08:16.316Z,66.70
2018-11-01T06:09:25.642Z,66.70
2018-11-01T06:10:29.753Z,66.70
2018-11-01T06:11:33.834Z,66.60
2018-11-01T06:12:37.932Z,66.50
2018-11-01T06:13:41.990Z,66.60
2018-11-01T06:14:46.090Z,66.60
2018-11-01T06:15:50.315Z,66.70
2018-11-01T06:16:54.471Z,65.80
2018-11-01T06:17:58.550Z,66.60
2018-11-01T06:19:02.656Z,66.60
2018-11-01T06:20:08.030Z,66.70
2018-11-01T06:21:12.174Z,66.70
2018-11-01T06:22:16.329Z,66.70
2018-11-01T06:23:20.400Z,66.70
2018-11-01T06:24:24.461Z,66.70
2018-11-01T06:25:28.556Z,66.70
2018-11-01T06:26:32.635Z,66.80
2018-11-01T06:27:36.952Z,66.80
2018-11-01T06:28:41.017Z,66.80
2018-11-01T06:29:45.067Z,66.80
2018-11-01T06:30:49.230Z,66.70
2018-11-01T06:31:53.351Z,66.70
2018-11-01T06:32:57.900Z,66.60
2018-11-01T06:34:02.013Z,66.50
2018-11-01T06:35:09.858Z,66.60
2018-11-01T06:36:15.326Z,66.50
2018-11-01T06:37:19.340Z,66.60
2018-11-01T06:38:23.509Z,66.70
2018-11-01T06:39:27.680Z,66.70
2018-11-01T06:40:31.835Z,66.80
2018-11-01T06:41:35.947Z,66.70
2018-11-01T06:42:40.121Z,66.70
2018-11-01T06:43:44.150Z,66.70
2018-11-01T06:44:48.220Z,66.70
2018-11-01T06:45:52.267Z,66.70
2018-11-01T06:46:56.392Z,66.80
2018-11-01T06:48:00.439Z,66.80
2018-11-01T06:49:04.804Z,66.60
2018-11-01T06:50:09.100Z,66.60
2018-11-01T06:51:13.128Z,66.70
2018-11-01T06:52:17.179Z,66.70
2018-11-01T06:53:21.316Z,66.80
2018-11-01T06:54:25.457Z,66.80
2018-11-01T06:55:29.527Z,66.80
2018-11-01T06:56:33.777Z,66.70
2018-11-01T06:57:38.010Z,66.60
2018-11-01T06:58:42.154Z,66.50
2018-11-01T06:59:46.287Z,66.50
2018-11-01T07:00:50.372Z,66.50
2018-11-01T07:01:54.417Z,66.50
2018-11-01T07:02:58.477Z,66.40
2018-11-01T07:04:02.565Z,66.40
2018-11-01T07:05:06.967Z,66.40
2018-11-01T07:06:10.999Z,66.40
2018-11-01T07:07:15.071Z,66.30
2018-11-01T07:08:19.159Z,66.30
2018-11-01T07:09:23.352Z,66.20
2018-11-01T07:10:27.488Z,66.10
2018-11-01T07:11:31.673Z,66.10
2018-11-01T07:12:35.761Z,66.10
2018-11-01T07:13:39.821Z,66.10
2018-11-01T07:14:43.892Z,66.30
2018-11-01T07:15:48.034Z,66.30
2018-11-01T07:16:52.272Z,66.30
2018-11-01T07:17:56.346Z,66.30
2018-11-01T07:19:00.449Z,66.30
2018-11-01T07:20:05.568Z,66.20
2018-11-01T07:21:09.734Z,66.10
2018-11-01T07:22:14.020Z,66.00
2018-11-01T07:23:18.200Z,66.00
2018-11-01T07:24:22.422Z,66.90
2018-11-01T07:25:26.608Z,66.20
2018-11-01T07:26:31.328Z,66.10
2018-11-01T07:27:35.721Z,65.90
2018-11-01T07:28:39.926Z,65.60
2018-11-01T07:29:44.021Z,65.60
2018-11-01T07:30:48.020Z,65.50
2018-11-01T07:31:52.124Z,65.40
2018-11-01T07:32:56.181Z,65.30
2018-11-01T07:34:00.272Z,65.10
2018-11-01T07:35:04.535Z,65.00
2018-11-01T07:36:08.621Z,65.10
2018-11-01T07:37:12.631Z,65.00
2018-11-01T07:38:16.725Z,64.80
2018-11-01T07:39:20.809Z,64.50
2018-11-01T07:40:24.866Z,64.40
2018-11-01T07:41:29.062Z,64.60
2018-11-01T07:42:33.256Z,64.30
2018-11-01T07:43:37.482Z,64.00
2018-11-01T07:44:41.481Z,63.80
2018-11-01T07:45:45.714Z,63.90
2018-11-01T07:46:49.774Z,64.00
2018-11-01T07:47:53.875Z,64.40
2018-11-01T07:48:57.960Z,64.60
2018-11-01T07:50:02.015Z,64.50
2018-11-01T07:51:06.190Z,64.30
2018-11-01T07:52:10.247Z,64.10
2018-11-01T07:53:14.275Z,64.20
2018-11-01T07:54:18.338Z,64.40
2018-11-01T07:55:22.504Z,64.30
2018-11-01T07:56:26.653Z,63.60
2018-11-01T07:57:30.946Z,64.30
2018-11-01T07:58:35.137Z,64.30
2018-11-01T07:59:39.209Z,64.30
2018-11-01T08:00:43.282Z,64.30
2018-11-01T08:01:47.374Z,64.20
2018-11-01T08:02:51.472Z,64.00
2018-11-01T08:03:55.554Z,63.90
2018-11-01T08:04:59.669Z,63.70
2018-11-01T08:06:03.832Z,63.60
2018-11-01T08:07:07.950Z,63.40
2018-11-01T08:08:12.091Z,63.40
2018-11-01T08:09:16.300Z,63.60
2018-11-01T08:10:20.392Z,63.60
2018-11-01T08:11:24.544Z,63.60
2018-11-01T08:12:28.806Z,63.60
2018-11-01T08:13:32.942Z,63.40
2018-11-01T08:14:37.135Z,63.20
2018-11-01T08:15:41.346Z,63.10
2018-11-01T08:16:45.498Z,62.60
2018-11-01T08:17:49.613Z,63.30
2018-11-01T08:18:53.658Z,63.50
2018-11-01T08:19:58.198Z,63.50
2018-11-01T08:21:02.890Z,63.50
2018-11-01T08:22:07.654Z,63.60
2018-11-01T08:23:12.027Z,63.70
2018-11-01T08:24:16.178Z,63.80
2018-11-01T08:25:20.307Z,63.80
2018-11-01T08:26:24.421Z,63.80
2018-11-01T08:27:28.647Z,63.90
2018-11-01T08:28:32.751Z,64.00
2018-11-01T08:29:36.804Z,64.00
2018-11-01T08:30:40.905Z,64.00
2018-11-01T08:31:44.931Z,64.00
2018-11-01T08:32:49.033Z,63.90
2018-11-01T08:33:53.198Z,63.90
2018-11-01T08:34:57.294Z,63.90
2018-11-01T08:36:02.119Z,63.90
2018-11-01T08:37:06.203Z,63.90
2018-11-01T08:38:10.326Z,63.90
2018-11-01T08:39:14.491Z,63.90
2018-11-01T08:40:18.546Z,63.90
2018-11-01T08:41:22.718Z,63.80
2018-11-01T08:42:26.800Z,63.80
2018-11-01T08:43:30.905Z,63.80
2018-11-01T08:44:34.932Z,63.80
2018-11-01T08:45:39.023Z,63.80
2018-11-01T08:46:43.141Z,63.80
2018-11-01T08:47:47.223Z,63.80
2018-11-01T08:48:51.386Z,63.70
2018-11-01T08:49:55.552Z,63.70
2018-11-01T08:50:59.805Z,63.60
2018-11-01T08:52:04.832Z,63.50
2018-11-01T08:53:08.990Z,63.50
2018-11-01T08:54:13.118Z,63.50
2018-11-01T08:55:17.213Z,63.40
2018-11-01T08:56:21.303Z,63.40
2018-11-01T08:57:25.951Z,63.50
2018-11-01T08:58:30.152Z,63.50
2018-11-01T08:59:34.265Z,63.40
2018-11-01T09:00:38.351Z,63.40
2018-11-01T09:01:42.450Z,63.50
2018-11-01T09:02:46.696Z,63.50
2018-11-01T09:03:57.337Z,63.50
2018-11-01T09:05:01.360Z,63.60
2018-11-01T09:06:05.555Z,63.70
2018-11-01T09:07:09.665Z,63.80
2018-11-01T09:08:13.865Z,63.70
2018-11-01T09:09:17.929Z,63.60
2018-11-01T09:10:22.007Z,63.60
2018-11-01T09:11:26.079Z,63.60
2018-11-01T09:12:30.236Z,63.70
2018-11-01T09:13:34.229Z,63.80
2018-11-01T09:14:38.476Z,63.80
2018-11-01T09:15:42.486Z,63.80
2018-11-01T09:16:46.808Z,63.70
2018-11-01T09:17:50.875Z,63.60
2018-11-01T09:18:54.985Z,63.60
2018-11-01T09:19:59.157Z,64.40
2018-11-01T09:21:03.356Z,64.30
2018-11-01T09:22:07.786Z,63.60
2018-11-01T09:23:11.822Z,63.50
2018-11-01T09:24:15.891Z,63.40
2018-11-01T09:25:19.961Z,63.30
2018-11-01T09:26:24.049Z,63.30
2018-11-01T09:27:28.120Z,63.20
2018-11-01T09:28:32.306Z,63.20
2018-11-01T09:29:36.826Z,63.20
2018-11-01T09:30:41.011Z,63.40
2018-11-01T09:31:45.119Z,62.80
2018-11-01T09:32:49.287Z,63.40
2018-11-01T09:33:53.371Z,63.50
2018-11-01T09:34:57.553Z,63.40
2018-11-01T09:36:01.735Z,63.40
2018-11-01T09:37:05.936Z,64.20
2018-11-01T09:38:10.113Z,63.20
2018-11-01T09:39:14.219Z,63.20
2018-11-01T09:40:18.442Z,63.20
2018-11-01T09:41:22.591Z,63.20
2018-11-01T09:42:26.707Z,63.10
2018-11-01T09:43:30.914Z,63.80
2018-11-01T09:44:34.956Z,63.10
2018-11-01T09:45:39.152Z,63.10
2018-11-01T09:46:43.616Z,63.00
2018-11-01T09:47:47.594Z,63.10
2018-11-01T09:48:51.686Z,63.10
2018-11-01T09:49:55.694Z,63.10
2018-11-01T09:50:59.738Z,63.10
2018-11-01T09:52:03.853Z,63.10
2018-11-01T09:53:08.119Z,63.10
2018-11-01T09:54:12.345Z,63.90
2018-11-01T09:55:16.404Z,63.10
2018-11-01T09:56:20.562Z,63.10
2018-11-01T09:57:24.672Z,63.20
2018-11-01T09:58:29.161Z,63.10
2018-11-01T09:59:33.298Z,63.10
2018-11-01T10:00:37.406Z,63.10
2018-11-01T10:01:41.566Z,63.20
2018-11-01T10:02:45.714Z,63.10
2018-11-01T10:03:49.829Z,63.00
2018-11-01T10:04:53.881Z,63.00
2018-11-01T10:05:58.122Z,62.90
2018-11-01T10:07:02.255Z,62.80
2018-11-01T10:08:06.382Z,62.80
2018-11-01T10:09:11.366Z,62.90
2018-11-01T10:10:15.540Z,62.80
2018-11-01T10:11:19.616Z,62.80
2018-11-01T10:12:23.788Z,62.80
2018-11-01T10:13:27.892Z,62.80
2018-11-01T10:14:32.044Z,62.90
2018-11-01T10:15:36.316Z,63.70
2018-11-01T10:16:40.523Z,62.90
2018-11-01T10:17:45.085Z,62.80
2018-11-01T10:18:48.968Z,62.80
2018-11-01T10:19:53.085Z,62.80
2018-11-01T10:20:57.176Z,62.80
2018-11-01T10:22:01.402Z,62.90
2018-11-01T10:23:05.878Z,62.90
2018-11-01T10:24:10.155Z,62.90
2018-11-01T10:25:15.363Z,62.90
2018-11-01T10:26:19.507Z,62.90
2018-11-01T10:27:23.630Z,63.50
2018-11-01T10:28:27.708Z,63.00
2018-11-01T10:29:32.076Z,63.10
2018-11-01T10:30:36.187Z,63.10
2018-11-01T10:31:40.307Z,63.20
2018-11-01T10:32:44.871Z,63.20
2018-11-01T10:33:49.194Z,63.40
2018-11-01T10:34:53.441Z,63.40
2018-11-01T10:35:57.544Z,63.40
2018-11-01T10:37:01.846Z,64.20
2018-11-01T10:38:06.125Z,63.40
2018-11-01T10:39:10.911Z,63.40
2018-11-01T10:40:16.496Z,63.50
2018-11-01T10:41:20.698Z,63.60
2018-11-01T10:42:24.778Z,64.40
2018-11-01T10:43:29.094Z,63.60
2018-11-01T10:44:33.198Z,63.70
2018-11-01T10:45:37.288Z,63.70
2018-11-01T10:46:41.491Z,63.70
2018-11-01T10:47:45.731Z,63.70
2018-11-01T10:48:49.823Z,63.70
2018-11-01T10:49:54.042Z,63.60
2018-11-01T10:50:58.420Z,63.50
2018-11-01T10:52:02.563Z,63.40
2018-11-01T10:53:06.682Z,63.40
2018-11-01T10:54:10.833Z,63.40
2018-11-01T10:55:14.893Z,63.30
2018-11-01T10:56:19.174Z,63.20
2018-11-01T10:57:23.784Z,63.20
2018-11-01T10:58:27.958Z,63.20
2018-11-01T10:59:32.190Z,63.10
2018-11-01T11:00:41.899Z,63.30
2018-11-01T11:01:51.193Z,63.30
2018-11-01T11:02:55.484Z,63.30
2018-11-01T11:03:59.616Z,63.40
2018-11-01T11:05:03.736Z,63.40
2018-11-01T11:06:08.042Z,63.40
2018-11-01T11:07:12.276Z,63.60
2018-11-01T11:08:16.397Z,63.50
2018-11-01T11:09:20.500Z,63.40
2018-11-01T11:10:24.656Z,63.40
2018-11-01T11:11:28.840Z,63.20
2018-11-01T11:12:33.000Z,63.20
2018-11-01T11:13:37.350Z,63.30
2018-11-01T11:14:41.878Z,63.20
2018-11-01T11:15:46.712Z,63.20
2018-11-01T11:16:51.114Z,63.20
2018-11-01T11:17:58.311Z,63.10
2018-11-01T11:19:02.569Z,63.00
2018-11-01T11:20:07.927Z,62.80
2018-11-01T11:21:12.358Z,62.70
2018-11-01T11:22:16.136Z,62.70
2018-11-01T11:23:20.344Z,62.20
2018-11-01T11:24:24.543Z,62.60
2018-11-01T11:25:29.789Z,62.50
2018-11-01T11:26:34.148Z,62.60
2018-11-01T11:27:38.597Z,62.50
2018-11-01T11:28:43.533Z,62.40
2018-11-01T11:29:47.796Z,62.40
2018-11-01T11:30:52.688Z,62.30
2018-11-01T11:31:56.789Z,62.30
2018-11-01T11:33:00.951Z,62.30
2018-11-01T11:34:05.832Z,62.40
2018-11-01T11:35:10.849Z,62.40
2018-11-01T11:36:15.641Z,63.20
2018-11-01T11:37:19.829Z,62.40
2018-11-01T11:38:30.510Z,62.30
2018-11-01T11:39:34.707Z,62.10
2018-11-01T11:40:39.163Z,62.00
2018-11-01T11:41:43.261Z,61.90
2018-11-01T11:42:47.467Z,61.80
2018-11-01T11:43:51.926Z,61.70
2018-11-01T11:44:56.348Z,61.60
2018-11-01T11:46:00.803Z,61.50
2018-11-01T11:47:05.070Z,61.40
2018-11-01T11:48:09.433Z,61.40
2018-11-01T11:49:13.845Z,61.30
2018-11-01T11:50:18.137Z,61.30
2018-11-01T11:51:22.234Z,61.10
2018-11-01T11:52:26.316Z,61.20
2018-11-01T11:53:30.440Z,61.20
2018-11-01T11:54:34.563Z,61.00
2018-11-01T11:55:38.941Z,61.00
2018-11-01T11:56:43.040Z,60.80
2018-11-01T11:57:47.262Z,60.70
2018-11-01T11:58:51.413Z,60.80
2018-11-01T11:59:55.459Z,60.70
2018-11-01T12:00:59.536Z,60.70
2018-11-01T12:02:03.709Z,60.60
2018-11-01T12:03:07.776Z,60.60
2018-11-01T12:04:11.863Z,60.40
2018-11-01T12:05:16.073Z,60.50
2018-11-01T12:06:20.158Z,60.60
2018-11-01T12:07:25.006Z,60.50
2018-11-01T12:08:29.839Z,60.50
2018-11-01T12:09:34.287Z,60.40
2018-11-01T12:10:38.590Z,60.50
2018-11-01T12:11:43.130Z,60.40
2018-11-01T12:12:47.467Z,60.30
2018-11-01T12:13:52.074Z,60.20
2018-11-01T12:14:56.329Z,60.90
2018-11-01T12:16:00.381Z,60.00
2018-11-01T12:17:04.836Z,59.90
2018-11-01T12:18:08.966Z,59.70
2018-11-01T12:19:13.173Z,59.70
2018-11-01T12:20:17.446Z,59.70
2018-11-01T12:21:21.839Z,59.70
2018-11-01T12:22:26.049Z,59.70
2018-11-01T12:23:30.094Z,59.60
2018-11-01T12:24:34.711Z,59.70
2018-11-01T12:25:39.170Z,59.70
2018-11-01T12:26:43.836Z,59.60
2018-11-01T12:27:48.140Z,59.50
2018-11-01T12:28:52.434Z,59.40
2018-11-01T12:29:56.807Z,59.40
2018-11-01T12:31:01.216Z,59.40
2018-11-01T12:32:06.187Z,59.40
2018-11-01T12:33:10.381Z,59.30
2018-11-01T12:34:14.451Z,59.30
2018-11-01T12:35:18.557Z,59.10
2018-11-01T12:36:22.625Z,59.20
2018-11-01T12:37:27.396Z,59.20
2018-11-01T12:38:31.523Z,59.30
2018-11-01T12:39:35.644Z,59.40
2018-11-01T12:40:39.837Z,59.40
2018-11-01T12:41:43.922Z,59.30
2018-11-01T12:42:47.963Z,59.40
2018-11-01T12:43:52.067Z,59.30
2018-11-01T12:44:56.146Z,59.20
2018-11-01T12:46:00.296Z,59.10
2018-11-01T12:47:04.454Z,59.10
2018-11-01T12:48:08.584Z,59.00
2018-11-01T12:49:12.809Z,59.10
2018-11-01T12:50:17.094Z,59.00
2018-11-01T12:51:21.049Z,59.00
2018-11-01T12:52:25.170Z,59.00
2018-11-01T12:53:29.214Z,58.80
2018-11-01T12:54:33.385Z,58.90
2018-11-01T12:55:37.512Z,58.70
2018-11-01T12:56:41.599Z,58.70
2018-11-01T12:57:45.684Z,58.60
2018-11-01T12:58:49.910Z,58.70
2018-11-01T12:59:54.062Z,58.60
2018-11-01T13:00:58.270Z,58.50
2018-11-01T13:02:02.358Z,58.50
2018-11-01T13:03:06.561Z,58.40
2018-11-01T13:04:10.941Z,58.40
2018-11-01T13:05:15.186Z,58.30
2018-11-01T13:06:19.498Z,58.10
2018-11-01T13:07:23.611Z,58.20
2018-11-01T13:08:27.976Z,58.20
2018-11-01T13:09:38.661Z,58.30
2018-11-01T13:10:42.963Z,58.30
2018-11-01T13:11:47.116Z,58.40
2018-11-01T13:12:51.946Z,58.40
2018-11-01T13:13:56.218Z,58.50
2018-11-01T13:15:00.388Z,58.50
2018-11-01T13:16:04.504Z,58.60
2018-11-01T13:17:08.547Z,58.60
2018-11-01T13:18:12.711Z,58.80
2018-11-01T13:19:16.686Z,59.50
2018-11-01T13:20:20.848Z,58.90
2018-11-01T13:21:25.020Z,59.00
2018-11-01T13:22:29.140Z,59.00
2018-11-01T13:23:33.252Z,59.10
2018-11-01T13:24:37.452Z,59.20
2018-11-01T13:25:41.579Z,59.20
2018-11-01T13:26:45.716Z,59.30
2018-11-01T13:27:49.876Z,59.40
2018-11-01T13:28:53.975Z,59.50
2018-11-01T13:29:58.232Z,59.50
2018-11-01T13:31:02.376Z,59.50
2018-11-01T13:32:06.738Z,59.50
2018-11-01T13:33:10.963Z,59.50
2018-11-01T13:34:15.429Z,59.50
2018-11-01T13:35:19.771Z,59.50
2018-11-01T13:36:23.986Z,59.60
2018-11-01T13:37:28.393Z,59.60
2018-11-01T13:38:32.553Z,59.60
2018-11-01T13:39:36.932Z,59.60
2018-11-01T13:40:41.367Z,59.60
2018-11-01T13:41:45.526Z,59.70
2018-11-01T13:42:49.812Z,59.70
2018-11-01T13:43:53.900Z,59.70
2018-11-01T13:44:57.923Z,59.80
2018-11-01T13:46:02.158Z,59.70
2018-11-01T13:47:06.553Z,59.70
2018-11-01T13:48:10.892Z,59.80